createdAt,value
2022-11-14T00:03:12.198Z,5.00
2022-11-14T00:08:21.679Z,4.90
2022-11-14T00:13:24.967Z,4.70
2022-11-14T00:18:28.552Z,4.10
2022-11-14T00:23:32.101Z,4.00
2022-11-14T00:28:35.923Z,2.90
2022-11-14T00:33:39.144Z,3.50
2022-11-14T00:38:42.543Z,3.30
2022-11-14T00:43:45.759Z,3.20
2022-11-14T00:48:49.063Z,3.40
2022-11-14T00:53:52.374Z,4.00
2022-11-14T00:58:55.788Z,4.40
2022-11-14T01:03:59.199Z,4.20
2022-11-14T01:09:02.563Z,4.10
2022-11-14T01:14:09.412Z,3.40
2022-11-14T01:19:12.618Z,3.70
2022-11-14T01:24:15.824Z,3.20
2022-11-14T01:29:19.137Z,3.50
2022-11-14T01:34:23.264Z,3.40
2022-11-14T01:39:27.599Z,3.60
2022-11-14T01:44:53.540Z,3.10
2022-11-14T01:50:01.062Z,3.10
2022-11-14T01:55:08.336Z,3.10
2022-11-14T02:00:14.515Z,3.10
2022-11-14T02:05:18.561Z,3.40
2022-11-14T02:10:22.280Z,3.00
2022-11-14T02:15:26.511Z,3.20
2022-11-14T02:25:37.130Z,3.30
2022-11-14T02:30:40.448Z,2.80
2022-11-14T02:35:43.853Z,3.70
2022-11-14T02:40:47.161Z,2.10
2022-11-14T02:45:50.475Z,3.30
2022-11-14T02:50:53.782Z,2.80
2022-11-14T02:55:57.094Z,3.70
2022-11-14T03:01:19.850Z,3.50
2022-11-14T03:06:23.786Z,3.10
2022-11-14T03:11:27.009Z,4.20
2022-11-14T03:16:31.943Z,3.40
2022-11-14T03:21:35.262Z,3.90
2022-11-14T03:26:38.974Z,4.10
2022-11-14T03:31:43.008Z,3.90
2022-11-14T03:36:46.216Z,3.30
2022-11-14T03:41:49.623Z,3.90
2022-11-14T03:46:53.856Z,4.20
2022-11-14T03:51:57.066Z,4.40
2022-11-14T03:57:01.299Z,4.30
2022-11-14T04:02:04.609Z,4.70
2022-11-14T04:07:08.195Z,3.90
2022-11-14T04:12:15.917Z,4.20
2022-11-14T04:17:19.462Z,3.80
2022-11-14T04:22:23.191Z,4.90
2022-11-14T04:27:26.386Z,4.90
2022-11-14T04:32:29.598Z,4.90
2022-11-14T04:37:33.007Z,5.50
2022-11-14T04:42:36.215Z,5.70
2022-11-14T04:47:41.956Z,5.70
2022-11-14T04:52:45.192Z,5.50
2022-11-14T04:57:57.825Z,5.60
2022-11-14T05:03:01.142Z,5.40
2022-11-14T05:08:04.854Z,5.40
2022-11-14T05:13:08.063Z,5.00
2022-11-14T05:18:11.473Z,5.10
2022-11-14T05:23:23.721Z,6.00
2022-11-14T05:28:27.284Z,4.60
2022-11-14T05:33:31.543Z,4.90
2022-11-14T05:38:35.471Z,4.70
2022-11-14T05:43:39.908Z,5.30
2022-11-14T05:48:43.629Z,5.20
2022-11-14T05:53:47.143Z,5.60
2022-11-14T05:58:50.354Z,5.60
2022-11-14T06:03:54.071Z,3.80
2022-11-14T06:08:57.282Z,5.20
2022-11-14T06:14:00.897Z,4.90
2022-11-14T06:19:05.644Z,5.60
2022-11-14T06:24:08.945Z,4.20
2022-11-14T06:29:12.161Z,5.50
2022-11-14T06:34:15.678Z,5.70
2022-11-14T06:39:18.885Z,5.10
2022-11-14T06:44:27.839Z,4.90
2022-11-14T06:49:37.925Z,5.00
2022-11-14T06:54:43.781Z,5.20
2022-11-14T06:59:48.308Z,5.40
2022-11-14T07:04:51.618Z,5.60
2022-11-14T07:09:56.880Z,3.60
2022-11-14T07:15:00.184Z,6.00
2022-11-14T07:20:04.112Z,6.10
2022-11-14T07:25:07.829Z,4.90
2022-11-14T07:30:11.760Z,6.40
2022-11-14T07:35:15.175Z,4.30
2022-11-14T07:40:19.708Z,4.70
2022-11-14T07:50:27.906Z,4.10
2022-11-14T07:55:31.076Z,5.00
2022-11-14T08:00:34.427Z,4.10
2022-11-14T08:05:37.694Z,4.90
2022-11-14T08:10:41.007Z,4.70
2022-11-14T08:15:44.317Z,3.40
2022-11-14T08:20:47.729Z,3.00
2022-11-14T08:25:51.039Z,3.40
2022-11-14T08:31:00.666Z,2.60
2022-11-14T08:36:05.350Z,3.10
2022-11-14T08:41:08.753Z,3.20
2022-11-14T08:46:11.863Z,2.70
2022-11-14T08:51:15.172Z,3.00
2022-11-14T08:56:18.482Z,3.40
2022-11-14T09:01:21.893Z,3.30
2022-11-14T09:06:25.309Z,3.90
2022-11-14T09:11:28.622Z,3.60
2022-11-14T09:16:31.932Z,3.70
2022-11-14T09:21:35.447Z,4.00
2022-11-14T09:26:38.654Z,4.50
2022-11-14T09:31:41.965Z,4.50
2022-11-14T09:36:45.267Z,4.60
2022-11-14T09:41:51.459Z,3.90
2022-11-14T09:47:03.469Z,4.20
2022-11-14T09:52:27.671Z,4.80
2022-11-14T09:57:31.274Z,6.10
2022-11-14T10:03:04.704Z,5.50
2022-11-14T10:08:25.934Z,5.60
2022-11-14T10:14:03.341Z,6.70
2022-11-14T10:19:15.564Z,5.10
2022-11-14T10:24:31.162Z,5.80
2022-11-14T10:29:34.474Z,5.80
2022-11-14T10:35:02.668Z,5.40
2022-11-14T10:40:26.049Z,5.40
2022-11-14T10:45:37.673Z,4.30
2022-11-14T10:50:47.827Z,5.10
2022-11-14T10:56:04.263Z,5.00
2022-11-14T11:01:39.721Z,5.00
2022-11-14T11:06:42.916Z,5.60
2022-11-14T11:11:55.855Z,4.90
2022-11-14T11:17:12.071Z,5.00
2022-11-14T11:22:26.127Z,4.40
2022-11-14T11:27:30.658Z,4.30
2022-11-14T11:32:33.877Z,4.70
2022-11-14T11:37:44.150Z,5.20
2022-11-14T11:48:37.365Z,5.60
2022-11-14T11:53:45.489Z,4.80
2022-11-14T11:58:51.117Z,4.60
2022-11-14T12:03:54.712Z,4.40
2022-11-14T12:09:48.683Z,4.10
2022-11-14T12:15:32.328Z,4.70
2022-11-14T12:21:02.464Z,4.00
2022-11-14T12:26:14.688Z,4.10
2022-11-14T12:31:18.822Z,4.30
2022-11-14T12:36:31.445Z,4.30
2022-11-14T12:41:38.215Z,5.20
2022-11-14T12:47:03.459Z,4.90
2022-11-14T12:52:44.047Z,5.00
2022-11-14T12:58:02.922Z,5.00
2022-11-14T13:03:24.668Z,5.20
2022-11-14T13:08:48.254Z,4.40
2022-11-14T13:14:21.054Z,4.70
2022-11-14T13:19:43.129Z,4.00
2022-11-14T13:24:58.507Z,4.20
2022-11-14T13:30:05.582Z,4.70
2022-11-14T13:35:37.476Z,4.50
2022-11-14T13:41:09.153Z,4.80
2022-11-14T13:46:34.069Z,4.60
2022-11-14T13:51:43.904Z,4.40
2022-11-14T13:56:53.390Z,5.30
2022-11-14T14:02:02.446Z,4.90
2022-11-14T14:07:16.970Z,4.50
2022-11-14T14:18:24.051Z,4.20
2022-11-14T14:23:46.302Z,3.40
2022-11-14T14:29:11.426Z,4.10
2022-11-14T14:34:28.155Z,3.90
2022-11-14T14:39:31.460Z,3.10
2022-11-14T14:44:38.967Z,3.40
2022-11-14T14:49:43.303Z,3.90
2022-11-14T14:54:54.499Z,3.70
2022-11-14T15:00:23.310Z,3.50
2022-11-14T15:05:29.793Z,3.80
2022-11-14T15:10:33.207Z,3.30
2022-11-14T15:15:38.031Z,2.40
2022-11-14T15:20:41.268Z,3.90
2022-11-14T15:25:44.982Z,4.20
2022-11-14T15:31:00.273Z,3.80
2022-11-14T15:36:13.004Z,4.40
2022-11-14T15:41:24.377Z,3.20
2022-11-14T15:46:42.125Z,3.70
2022-11-14T15:51:56.503Z,4.30
2022-11-14T15:57:13.046Z,3.90
2022-11-14T16:02:17.999Z,3.90
2022-11-14T16:07:22.471Z,4.20
2022-11-14T16:12:25.639Z,3.90
2022-11-14T16:17:28.838Z,4.30
2022-11-14T16:22:32.968Z,4.20
2022-11-14T16:27:36.288Z,4.70
2022-11-14T16:32:41.349Z,4.50
2022-11-14T16:37:44.958Z,6.50
2022-11-14T16:42:48.680Z,6.40
2022-11-14T16:47:52.399Z,4.50
2022-11-14T16:52:55.711Z,4.70
2022-11-14T16:57:59.025Z,5.50
2022-11-14T17:03:02.438Z,5.10
2022-11-14T17:08:06.256Z,6.10
2022-11-14T17:13:10.797Z,6.20
2022-11-14T17:23:17.214Z,6.60
2022-11-14T17:28:20.527Z,7.40
2022-11-14T17:33:24.140Z,7.60
2022-11-14T17:38:27.348Z,7.10
2022-11-14T17:43:35.746Z,7.60
2022-11-14T17:48:45.029Z,7.60
2022-11-14T17:53:48.237Z,11.40
2022-11-14T17:58:53.543Z,9.20
2022-11-14T18:04:01.611Z,7.90
2022-11-14T18:09:11.537Z,7.70
2022-11-14T18:14:17.557Z,9.50
2022-11-14T18:19:20.977Z,11.50
2022-11-14T18:24:24.187Z,11.90
2022-11-14T18:29:28.719Z,12.80
2022-11-14T18:34:31.827Z,16.30
2022-11-14T18:39:35.274Z,13.30
2022-11-14T18:44:38.657Z,10.70
2022-11-14T18:49:41.965Z,11.70
2022-11-14T18:54:45.374Z,10.20
2022-11-14T18:59:48.685Z,10.30
2022-11-14T19:04:51.789Z,13.20
2022-11-14T19:09:55.203Z,15.10
2022-11-14T19:14:58.514Z,15.90
2022-11-14T19:20:01.826Z,16.80
2022-11-14T19:25:05.753Z,16.90
2022-11-14T19:30:09.573Z,17.70
2022-11-14T19:35:18.874Z,16.30
2022-11-14T19:40:23.567Z,19.10
2022-11-14T19:45:26.777Z,20.00
2022-11-14T19:55:34.319Z,19.40
2022-11-14T20:00:38.146Z,18.30
2022-11-14T20:05:41.556Z,20.20
2022-11-14T20:11:01.760Z,19.20
2022-11-14T20:16:13.163Z,19.70
2022-11-14T20:21:19.699Z,21.10
2022-11-14T20:26:24.089Z,19.60
2022-11-14T20:31:31.799Z,20.40
2022-11-14T20:36:50.294Z,20.00
2022-11-14T20:41:58.395Z,20.80
2022-11-14T20:47:01.590Z,21.80
2022-11-14T20:52:06.034Z,21.20
2022-11-14T20:57:09.242Z,21.90
2022-11-14T21:02:13.147Z,21.50
2022-11-14T21:07:16.688Z,20.10
2022-11-14T21:12:20.097Z,22.10
2022-11-14T21:17:23.817Z,21.20
2022-11-14T21:22:27.025Z,19.10
2022-11-14T21:27:30.812Z,20.20
2022-11-14T21:32:36.618Z,18.90
2022-11-14T21:37:39.824Z,21.60
2022-11-14T21:42:43.237Z,20.10
2022-11-14T21:47:46.445Z,22.00
2022-11-14T21:52:49.757Z,21.20
2022-11-14T21:57:56.140Z,22.80
2022-11-14T22:03:19.049Z,23.50
2022-11-14T22:08:22.523Z,24.20
2022-11-14T22:13:25.838Z,25.10
2022-11-14T22:18:29.147Z,28.20
2022-11-14T22:23:32.701Z,24.50
2022-11-14T22:28:36.893Z,26.30
2022-11-14T22:33:46.646Z,25.90
2022-11-14T22:38:52.425Z,25.00
2022-11-14T22:43:56.951Z,23.80
2022-11-14T22:49:00.384Z,25.80
2022-11-14T22:54:03.584Z,26.40
2022-11-14T22:59:06.895Z,23.00
2022-11-14T23:04:10.251Z,25.80
2022-11-14T23:09:13.519Z,26.30
2022-11-14T23:14:16.835Z,25.30
2022-11-14T23:19:20.241Z,28.40
2022-11-14T23:24:23.450Z,27.80
2022-11-14T23:29:26.762Z,28.30
2022-11-14T23:34:30.077Z,28.40
2022-11-14T23:39:33.385Z,29.40
2022-11-14T23:44:36.795Z,28.10
2022-11-14T23:49:40.207Z,23.40
2022-11-14T23:54:43.418Z,25.50
2022-11-14T23:59:46.560Z,20.80
